sensor_id;sensor_type;location;lat;lon;timestamp;P1;durP1;ratioP1;P2;durP2;ratioP2
9948;SDS011;5013;51.840;8.276;2023-08-08T00:01:52;8.47;;;4.60;;
9948;SDS011;5013;51.840;8.276;2023-08-08T00:04:17;8.33;;;4.63;;
9948;SDS011;5013;51.840;8.276;2023-08-08T00:06:43;6.27;;;5.13;;
9948;SDS011;5013;51.840;8.276;2023-08-08T00:09:09;8.40;;;4.80;;
9948;SDS011;5013;51.840;8.276;2023-08-08T00:11:34;8.70;;;5.07;;
9948;SDS011;5013;51.840;8.276;2023-08-08T00:14:00;8.27;;;4.67;;
9948;SDS011;5013;51.840;8.276;2023-08-08T00:16:25;7.73;;;4.90;;
9948;SDS011;5013;51.840;8.276;2023-08-08T00:18:51;8.63;;;5.90;;
9948;SDS011;5013;51.840;8.276;2023-08-08T00:21:18;6.90;;;5.33;;
9948;SDS011;5013;51.840;8.276;2023-08-08T00:23:44;6.37;;;5.50;;
9948;SDS011;5013;51.840;8.276;2023-08-08T00:26:10;8.87;;;5.60;;
9948;SDS011;5013;51.840;8.276;2023-08-08T00:28:36;9.63;;;5.83;;
9948;SDS011;5013;51.840;8.276;2023-08-08T00:31:01;7.73;;;5.53;;
9948;SDS011;5013;51.840;8.276;2023-08-08T00:33:27;7.70;;;6.40;;
9948;SDS011;5013;51.840;8.276;2023-08-08T00:35:52;6.83;;;5.67;;
9948;SDS011;5013;51.840;8.276;2023-08-08T00:38:18;8.67;;;5.73;;
9948;SDS011;5013;51.840;8.276;2023-08-08T00:40:44;5.13;;;4.53;;
9948;SDS011;5013;51.840;8.276;2023-08-08T00:43:10;7.23;;;5.00;;
9948;SDS011;5013;51.840;8.276;2023-08-08T00:45:36;9.07;;;5.30;;
9948;SDS011;5013;51.840;8.276;2023-08-08T00:48:02;6.80;;;4.47;;
9948;SDS011;5013;51.840;8.276;2023-08-08T00:50:28;6.20;;;4.57;;
9948;SDS011;5013;51.840;8.276;2023-08-08T00:52:53;8.10;;;4.30;;
9948;SDS011;5013;51.840;8.276;2023-08-08T00:55:19;4.33;;;3.93;;
9948;SDS011;5013;51.840;8.276;2023-08-08T00:57:45;7.50;;;5.03;;
9948;SDS011;5013;51.840;8.276;2023-08-08T01:00:11;6.97;;;4.80;;
9948;SDS011;5013;51.840;8.276;2023-08-08T01:02:37;6.00;;;4.60;;
9948;SDS011;5013;51.840;8.276;2023-08-08T01:05:03;4.87;;;4.23;;
9948;SDS011;5013;51.840;8.276;2023-08-08T01:07:31;5.07;;;4.60;;
9948;SDS011;5013;51.840;8.276;2023-08-08T01:09:59;7.50;;;4.00;;
9948;SDS011;5013;51.840;8.276;2023-08-08T01:12:33;6.47;;;4.17;;
9948;SDS011;5013;51.840;8.276;2023-08-08T01:15:05;7.53;;;4.57;;
9948;SDS011;5013;51.840;8.276;2023-08-08T01:17:33;5.03;;;4.23;;
9948;SDS011;5013;51.840;8.276;2023-08-08T01:20:01;7.40;;;4.07;;
9948;SDS011;5013;51.840;8.276;2023-08-08T01:22:29;4.63;;;3.90;;
9948;SDS011;5013;51.840;8.276;2023-08-08T01:25:02;5.57;;;4.37;;
9948;SDS011;5013;51.840;8.276;2023-08-08T01:27:28;3.33;;;3.03;;
9948;SDS011;5013;51.840;8.276;2023-08-08T01:29:54;4.40;;;3.67;;
9948;SDS011;5013;51.840;8.276;2023-08-08T01:32:20;3.60;;;2.97;;
9948;SDS011;5013;51.840;8.276;2023-08-08T01:34:45;4.33;;;2.80;;
9948;SDS011;5013;51.840;8.276;2023-08-08T01:37:18;5.97;;;3.40;;
9948;SDS011;5013;51.840;8.276;2023-08-08T01:39:47;4.17;;;2.80;;
9948;SDS011;5013;51.840;8.276;2023-08-08T01:42:15;5.00;;;2.73;;
9948;SDS011;5013;51.840;8.276;2023-08-08T01:44:42;3.03;;;2.83;;
9948;SDS011;5013;51.840;8.276;2023-08-08T01:47:08;4.83;;;2.63;;
9948;SDS011;5013;51.840;8.276;2023-08-08T01:49:34;2.80;;;2.60;;
9948;SDS011;5013;51.840;8.276;2023-08-08T01:51:59;4.03;;;3.63;;
9948;SDS011;5013;51.840;8.276;2023-08-08T01:54:25;4.17;;;2.87;;
9948;SDS011;5013;51.840;8.276;2023-08-08T01:56:51;5.43;;;2.90;;
9948;SDS011;5013;51.840;8.276;2023-08-08T01:59:16;3.63;;;3.07;;
9948;SDS011;5013;51.840;8.276;2023-08-08T02:01:42;3.30;;;3.03;;
9948;SDS011;5013;51.840;8.276;2023-08-08T02:04:07;3.30;;;3.00;;
9948;SDS011;5013;51.840;8.276;2023-08-08T02:06:33;3.70;;;3.40;;
9948;SDS011;5013;51.840;8.276;2023-08-08T02:08:59;3.37;;;2.90;;
9948;SDS011;5013;51.840;8.276;2023-08-08T02:11:24;4.60;;;3.70;;
9948;SDS011;5013;51.840;8.276;2023-08-08T02:13:50;3.47;;;3.17;;
9948;SDS011;5013;51.840;8.276;2023-08-08T02:16:15;3.37;;;3.07;;
9948;SDS011;5013;51.840;8.276;2023-08-08T02:18:41;3.77;;;2.93;;
9948;SDS011;5013;51.840;8.276;2023-08-08T02:21:07;4.87;;;3.20;;
9948;SDS011;5013;51.840;8.276;2023-08-08T02:23:33;3.33;;;3.00;;
9948;SDS011;5013;51.840;8.276;2023-08-08T02:25:59;5.10;;;2.90;;
9948;SDS011;5013;51.840;8.276;2023-08-08T02:28:24;3.37;;;3.10;;
9948;SDS011;5013;51.840;8.276;2023-08-08T02:30:50;5.13;;;3.50;;
9948;SDS011;5013;51.840;8.276;2023-08-08T02:33:16;3.20;;;3.00;;
9948;SDS011;5013;51.840;8.276;2023-08-08T02:35:41;3.40;;;3.20;;
9948;SDS011;5013;51.840;8.276;2023-08-08T02:38:07;3.50;;;3.20;;
9948;SDS011;5013;51.840;8.276;2023-08-08T02:40:33;4.10;;;3.67;;
9948;SDS011;5013;51.840;8.276;2023-08-08T02:42:58;6.73;;;3.63;;
9948;SDS011;5013;51.840;8.276;2023-08-08T02:45:24;3.60;;;3.30;;
9948;SDS011;5013;51.840;8.276;2023-08-08T02:47:49;6.83;;;4.30;;
9948;SDS011;5013;51.840;8.276;2023-08-08T02:50:15;5.00;;;4.60;;
9948;SDS011;5013;51.840;8.276;2023-08-08T02:52:41;7.93;;;5.80;;
9948;SDS011;5013;51.840;8.276;2023-08-08T02:55:06;7.17;;;6.47;;
9948;SDS011;5013;51.840;8.276;2023-08-08T02:57:33;9.30;;;6.07;;
9948;SDS011;5013;51.840;8.276;2023-08-08T02:59:58;9.27;;;6.23;;
9948;SDS011;5013;51.840;8.276;2023-08-08T03:02:24;11.00;;;7.47;;
9948;SDS011;5013;51.840;8.276;2023-08-08T03:04:49;8.47;;;7.50;;
9948;SDS011;5013;51.840;8.276;2023-08-08T03:07:15;8.03;;;7.27;;
9948;SDS011;5013;51.840;8.276;2023-08-08T03:09:40;7.93;;;7.13;;
9948;SDS011;5013;51.840;8.276;2023-08-08T03:12:06;8.70;;;7.23;;
9948;SDS011;5013;51.840;8.276;2023-08-08T03:14:32;8.00;;;7.10;;
9948;SDS011;5013;51.840;8.276;2023-08-08T03:16:58;8.40;;;7.80;;
9948;SDS011;5013;51.840;8.276;2023-08-08T03:19:24;11.00;;;8.80;;
9948;SDS011;5013;51.840;8.276;2023-08-08T03:21:50;11.23;;;9.10;;
9948;SDS011;5013;51.840;8.276;2023-08-08T03:24:15;9.97;;;9.07;;
9948;SDS011;5013;51.840;8.276;2023-08-08T03:26:41;13.20;;;9.60;;
9948;SDS011;5013;51.840;8.276;2023-08-08T03:29:07;11.47;;;9.27;;
9948;SDS011;5013;51.840;8.276;2023-08-08T03:31:35;13.57;;;8.50;;
9948;SDS011;5013;51.840;8.276;2023-08-08T03:34:01;8.97;;;7.63;;
9948;SDS011;5013;51.840;8.276;2023-08-08T03:36:26;8.37;;;7.57;;
9948;SDS011;5013;51.840;8.276;2023-08-08T03:38:52;8.83;;;7.97;;
9948;SDS011;5013;51.840;8.276;2023-08-08T03:41:17;11.70;;;9.80;;
9948;SDS011;5013;51.840;8.276;2023-08-08T03:43:43;8.93;;;8.13;;
9948;SDS011;5013;51.840;8.276;2023-08-08T03:46:09;13.07;;;9.57;;
9948;SDS011;5013;51.840;8.276;2023-08-08T03:48:35;9.30;;;8.23;;
9948;SDS011;5013;51.840;8.276;2023-08-08T03:51:01;9.60;;;8.30;;
9948;SDS011;5013;51.840;8.276;2023-08-08T03:53:27;12.27;;;8.20;;
9948;SDS011;5013;51.840;8.276;2023-08-08T03:55:53;8.07;;;7.33;;
9948;SDS011;5013;51.840;8.276;2023-08-08T03:58:18;11.80;;;8.07;;
9948;SDS011;5013;51.840;8.276;2023-08-08T04:00:44;9.27;;;8.13;;
9948;SDS011;5013;51.840;8.276;2023-08-08T04:03:14;9.30;;;6.77;;
9948;SDS011;5013;51.840;8.276;2023-08-08T04:05:41;9.43;;;7.50;;
9948;SDS011;5013;51.840;8.276;2023-08-08T04:08:13;9.93;;;8.23;;
9948;SDS011;5013;51.840;8.276;2023-08-08T04:10:39;13.07;;;7.13;;
9948;SDS011;5013;51.840;8.276;2023-08-08T04:13:05;12.50;;;8.20;;
9948;SDS011;5013;51.840;8.276;2023-08-08T04:15:30;13.50;;;8.57;;
9948;SDS011;5013;51.840;8.276;2023-08-08T04:17:56;9.87;;;7.17;;
9948;SDS011;5013;51.840;8.276;2023-08-08T04:20:22;10.13;;;7.60;;
9948;SDS011;5013;51.840;8.276;2023-08-08T04:22:47;8.40;;;7.60;;
9948;SDS011;5013;51.840;8.276;2023-08-08T04:25:13;9.27;;;7.63;;
9948;SDS011;5013;51.840;8.276;2023-08-08T04:27:40;18.17;;;8.40;;
9948;SDS011;5013;51.840;8.276;2023-08-08T04:30:06;12.20;;;6.63;;
9948;SDS011;5013;51.840;8.276;2023-08-08T04:32:32;7.63;;;6.57;;
9948;SDS011;5013;51.840;8.276;2023-08-08T04:34:58;7.77;;;6.80;;
9948;SDS011;5013;51.840;8.276;2023-08-08T04:37:23;6.23;;;5.63;;
9948;SDS011;5013;51.840;8.276;2023-08-08T04:39:49;9.13;;;6.07;;
9948;SDS011;5013;51.840;8.276;2023-08-08T04:42:14;7.57;;;6.20;;
9948;SDS011;5013;51.840;8.276;2023-08-08T04:44:40;14.63;;;6.80;;
9948;SDS011;5013;51.840;8.276;2023-08-08T04:47:06;6.33;;;5.73;;
9948;SDS011;5013;51.840;8.276;2023-08-08T04:49:31;7.37;;;5.43;;
9948;SDS011;5013;51.840;8.276;2023-08-08T04:51:57;13.90;;;5.93;;
9948;SDS011;5013;51.840;8.276;2023-08-08T04:54:22;8.63;;;5.90;;
9948;SDS011;5013;51.840;8.276;2023-08-08T04:56:48;7.37;;;5.90;;
9948;SDS011;5013;51.840;8.276;2023-08-08T04:59:13;15.53;;;6.53;;
9948;SDS011;5013;51.840;8.276;2023-08-08T05:01:39;13.67;;;6.53;;
9948;SDS011;5013;51.840;8.276;2023-08-08T05:04:04;9.03;;;5.80;;
9948;SDS011;5013;51.840;8.276;2023-08-08T05:06:30;12.23;;;6.43;;
9948;SDS011;5013;51.840;8.276;2023-08-08T05:08:56;7.60;;;5.67;;
9948;SDS011;5013;51.840;8.276;2023-08-08T05:11:22;8.33;;;5.80;;
9948;SDS011;5013;51.840;8.276;2023-08-08T05:13:47;9.03;;;6.47;;
9948;SDS011;5013;51.840;8.276;2023-08-08T05:16:13;9.67;;;6.17;;
9948;SDS011;5013;51.840;8.276;2023-08-08T05:18:39;6.17;;;5.57;;
9948;SDS011;5013;51.840;8.276;2023-08-08T05:21:05;11.93;;;6.03;;
9948;SDS011;5013;51.840;8.276;2023-08-08T05:23:31;7.77;;;6.60;;
9948;SDS011;5013;51.840;8.276;2023-08-08T05:25:57;9.87;;;6.50;;
9948;SDS011;5013;51.840;8.276;2023-08-08T05:28:23;7.17;;;5.73;;
9948;SDS011;5013;51.840;8.276;2023-08-08T05:30:48;9.47;;;5.77;;
9948;SDS011;5013;51.840;8.276;2023-08-08T05:33:14;10.07;;;6.57;;
9948;SDS011;5013;51.840;8.276;2023-08-08T05:35:40;9.20;;;5.53;;
9948;SDS011;5013;51.840;8.276;2023-08-08T05:38:05;9.53;;;5.50;;
9948;SDS011;5013;51.840;8.276;2023-08-08T05:40:33;7.73;;;5.33;;
9948;SDS011;5013;51.840;8.276;2023-08-08T05:43:00;8.17;;;5.67;;
9948;SDS011;5013;51.840;8.276;2023-08-08T05:45:26;12.37;;;6.63;;
9948;SDS011;5013;51.840;8.276;2023-08-08T05:47:52;6.43;;;5.80;;
9948;SDS011;5013;51.840;8.276;2023-08-08T05:50:18;12.93;;;6.80;;
9948;SDS011;5013;51.840;8.276;2023-08-08T05:52:44;9.40;;;6.77;;
9948;SDS011;5013;51.840;8.276;2023-08-08T05:55:09;13.10;;;6.80;;
9948;SDS011;5013;51.840;8.276;2023-08-08T05:57:35;12.37;;;7.87;;
9948;SDS011;5013;51.840;8.276;2023-08-08T06:00:01;13.47;;;8.10;;
9948;SDS011;5013;51.840;8.276;2023-08-08T06:02:26;9.73;;;7.70;;
9948;SDS011;5013;51.840;8.276;2023-08-08T06:04:52;14.23;;;9.53;;
9948;SDS011;5013;51.840;8.276;2023-08-08T06:07:18;14.70;;;11.00;;
9948;SDS011;5013;51.840;8.276;2023-08-08T06:09:44;15.57;;;11.07;;
9948;SDS011;5013;51.840;8.276;2023-08-08T06:12:10;17.97;;;12.57;;
9948;SDS011;5013;51.840;8.276;2023-08-08T06:14:35;20.70;;;11.60;;
9948;SDS011;5013;51.840;8.276;2023-08-08T06:17:01;19.53;;;11.50;;
9948;SDS011;5013;51.840;8.276;2023-08-08T06:19:26;19.03;;;13.80;;
9948;SDS011;5013;51.840;8.276;2023-08-08T06:21:52;13.93;;;12.50;;
9948;SDS011;5013;51.840;8.276;2023-08-08T06:24:18;19.03;;;14.03;;
9948;SDS011;5013;51.840;8.276;2023-08-08T06:26:43;16.93;;;14.90;;
9948;SDS011;5013;51.840;8.276;2023-08-08T06:29:09;15.47;;;13.77;;
9948;SDS011;5013;51.840;8.276;2023-08-08T06:31:34;18.77;;;16.50;;
9948;SDS011;5013;51.840;8.276;2023-08-08T06:34:00;24.10;;;18.07;;
9948;SDS011;5013;51.840;8.276;2023-08-08T06:36:26;18.90;;;16.90;;
9948;SDS011;5013;51.840;8.276;2023-08-08T06:38:51;19.57;;;15.40;;
9948;SDS011;5013;51.840;8.276;2023-08-08T06:41:17;20.23;;;16.70;;
9948;SDS011;5013;51.840;8.276;2023-08-08T06:43:42;19.20;;;17.20;;
9948;SDS011;5013;51.840;8.276;2023-08-08T06:46:08;16.07;;;14.57;;
9948;SDS011;5013;51.840;8.276;2023-08-08T06:48:34;26.40;;;18.20;;
9948;SDS011;5013;51.840;8.276;2023-08-08T06:50:59;23.50;;;20.87;;
9948;SDS011;5013;51.840;8.276;2023-08-08T06:53:25;25.03;;;18.40;;
9948;SDS011;5013;51.840;8.276;2023-08-08T06:55:51;23.90;;;20.50;;
9948;SDS011;5013;51.840;8.276;2023-08-08T06:58:16;24.70;;;18.33;;
9948;SDS011;5013;51.840;8.276;2023-08-08T07:00:42;24.30;;;18.87;;
9948;SDS011;5013;51.840;8.276;2023-08-08T07:03:08;27.57;;;20.97;;
9948;SDS011;5013;51.840;8.276;2023-08-08T07:05:33;23.70;;;18.97;;
9948;SDS011;5013;51.840;8.276;2023-08-08T07:07:59;22.40;;;17.73;;
9948;SDS011;5013;51.840;8.276;2023-08-08T07:10:24;26.37;;;21.47;;
9948;SDS011;5013;51.840;8.276;2023-08-08T07:12:50;27.03;;;21.20;;
9948;SDS011;5013;51.840;8.276;2023-08-08T07:15:16;26.60;;;23.63;;
9948;SDS011;5013;51.840;8.276;2023-08-08T07:17:42;25.93;;;21.77;;
9948;SDS011;5013;51.840;8.276;2023-08-08T07:20:07;25.83;;;21.43;;
9948;SDS011;5013;51.840;8.276;2023-08-08T07:22:33;27.67;;;22.50;;
9948;SDS011;5013;51.840;8.276;2023-08-08T07:24:59;27.93;;;21.80;;
9948;SDS011;5013;51.840;8.276;2023-08-08T07:27:26;23.23;;;20.60;;
9948;SDS011;5013;51.840;8.276;2023-08-08T07:29:52;23.43;;;20.70;;
9948;SDS011;5013;51.840;8.276;2023-08-08T07:32:18;24.03;;;21.07;;
9948;SDS011;5013;51.840;8.276;2023-08-08T07:34:43;25.93;;;19.90;;
9948;SDS011;5013;51.840;8.276;2023-08-08T07:37:09;25.70;;;20.10;;
9948;SDS011;5013;51.840;8.276;2023-08-08T07:39:34;23.20;;;20.70;;
9948;SDS011;5013;51.840;8.276;2023-08-08T07:42:00;29.97;;;19.57;;
9948;SDS011;5013;51.840;8.276;2023-08-08T07:44:25;24.97;;;20.50;;
9948;SDS011;5013;51.840;8.276;2023-08-08T07:46:51;30.63;;;21.50;;
9948;SDS011;5013;51.840;8.276;2023-08-08T07:49:17;27.00;;;18.80;;
9948;SDS011;5013;51.840;8.276;2023-08-08T07:51:42;26.70;;;19.63;;
9948;SDS011;5013;51.840;8.276;2023-08-08T07:54:08;24.43;;;17.73;;
9948;SDS011;5013;51.840;8.276;2023-08-08T07:56:35;23.33;;;17.33;;
9948;SDS011;5013;51.840;8.276;2023-08-08T07:59:02;21.10;;;17.33;;
9948;SDS011;5013;51.840;8.276;2023-08-08T08:01:28;24.77;;;18.00;;
9948;SDS011;5013;51.840;8.276;2023-08-08T08:03:54;24.50;;;19.10;;
9948;SDS011;5013;51.840;8.276;2023-08-08T08:06:20;22.97;;;19.17;;
9948;SDS011;5013;51.840;8.276;2023-08-08T08:08:45;21.60;;;18.67;;
9948;SDS011;5013;51.840;8.276;2023-08-08T08:11:11;27.77;;;18.97;;
9948;SDS011;5013;51.840;8.276;2023-08-08T08:13:38;21.70;;;17.70;;
9948;SDS011;5013;51.840;8.276;2023-08-08T08:16:04;28.53;;;17.47;;
9948;SDS011;5013;51.840;8.276;2023-08-08T08:18:30;21.20;;;17.60;;
9948;SDS011;5013;51.840;8.276;2023-08-08T08:20:55;24.30;;;16.67;;
9948;SDS011;5013;51.840;8.276;2023-08-08T08:23:21;23.43;;;17.83;;
9948;SDS011;5013;51.840;8.276;2023-08-08T08:25:46;21.20;;;16.70;;
9948;SDS011;5013;51.840;8.276;2023-08-08T08:28:13;23.73;;;18.03;;
9948;SDS011;5013;51.840;8.276;2023-08-08T08:30:39;20.60;;;17.43;;
9948;SDS011;5013;51.840;8.276;2023-08-08T08:33:05;21.40;;;15.93;;
9948;SDS011;5013;51.840;8.276;2023-08-08T08:35:32;21.67;;;17.10;;
9948;SDS011;5013;51.840;8.276;2023-08-08T08:37:59;19.97;;;15.07;;
9948;SDS011;5013;51.840;8.276;2023-08-08T08:40:24;18.87;;;15.17;;
9948;SDS011;5013;51.840;8.276;2023-08-08T08:42:51;15.57;;;13.33;;
9948;SDS011;5013;51.840;8.276;2023-08-08T08:45:17;18.90;;;15.57;;
9948;SDS011;5013;51.840;8.276;2023-08-08T08:47:48;20.07;;;16.07;;
9948;SDS011;5013;51.840;8.276;2023-08-08T08:50:17;18.97;;;14.20;;
9948;SDS011;5013;51.840;8.276;2023-08-08T08:52:43;19.00;;;12.97;;
9948;SDS011;5013;51.840;8.276;2023-08-08T08:55:09;19.33;;;13.20;;
9948;SDS011;5013;51.840;8.276;2023-08-08T08:57:35;17.63;;;13.00;;
9948;SDS011;5013;51.840;8.276;2023-08-08T09:00:02;13.63;;;11.37;;
9948;SDS011;5013;51.840;8.276;2023-08-08T09:02:28;17.70;;;12.03;;
9948;SDS011;5013;51.840;8.276;2023-08-08T09:04:54;22.47;;;14.67;;
9948;SDS011;5013;51.840;8.276;2023-08-08T09:07:20;21.87;;;16.43;;
9948;SDS011;5013;51.840;8.276;2023-08-08T09:09:47;28.33;;;16.70;;
9948;SDS011;5013;51.840;8.276;2023-08-08T09:12:13;17.17;;;14.43;;
9948;SDS011;5013;51.840;8.276;2023-08-08T09:14:40;22.40;;;15.23;;
9948;SDS011;5013;51.840;8.276;2023-08-08T09:17:10;19.07;;;13.83;;
9948;SDS011;5013;51.840;8.276;2023-08-08T09:19:37;21.30;;;13.60;;
9948;SDS011;5013;51.840;8.276;2023-08-08T09:22:03;16.97;;;12.90;;
9948;SDS011;5013;51.840;8.276;2023-08-08T09:24:28;20.00;;;12.57;;
9948;SDS011;5013;51.840;8.276;2023-08-08T09:26:54;14.77;;;11.20;;
9948;SDS011;5013;51.840;8.276;2023-08-08T09:29:20;12.47;;;10.20;;
9948;SDS011;5013;51.840;8.276;2023-08-08T09:31:46;11.07;;;9.47;;
9948;SDS011;5013;51.840;8.276;2023-08-08T09:34:12;12.37;;;8.30;;
9948;SDS011;5013;51.840;8.276;2023-08-08T09:36:38;10.30;;;8.27;;
9948;SDS011;5013;51.840;8.276;2023-08-08T09:39:04;9.27;;;7.20;;
9948;SDS011;5013;51.840;8.276;2023-08-08T09:41:30;9.47;;;6.23;;
9948;SDS011;5013;51.840;8.276;2023-08-08T09:43:58;6.07;;;5.33;;
9948;SDS011;5013;51.840;8.276;2023-08-08T09:46:25;7.73;;;5.63;;
9948;SDS011;5013;51.840;8.276;2023-08-08T09:48:51;10.03;;;6.30;;
9948;SDS011;5013;51.840;8.276;2023-08-08T09:51:17;10.40;;;5.30;;
9948;SDS011;5013;51.840;8.276;2023-08-08T09:53:44;5.97;;;5.17;;
9948;SDS011;5013;51.840;8.276;2023-08-08T09:56:12;5.80;;;4.10;;
9948;SDS011;5013;51.840;8.276;2023-08-08T09:58:39;8.53;;;4.80;;
9948;SDS011;5013;51.840;8.276;2023-08-08T10:01:06;7.43;;;3.80;;
9948;SDS011;5013;51.840;8.276;2023-08-08T10:03:32;5.27;;;3.87;;
9948;SDS011;5013;51.840;8.276;2023-08-08T10:05:58;3.40;;;2.70;;
9948;SDS011;5013;51.840;8.276;2023-08-08T10:08:25;8.23;;;3.13;;
9948;SDS011;5013;51.840;8.276;2023-08-08T10:10:51;7.30;;;4.07;;
9948;SDS011;5013;51.840;8.276;2023-08-08T10:13:22;4.60;;;3.03;;
9948;SDS011;5013;51.840;8.276;2023-08-08T10:15:49;9.23;;;3.43;;
9948;SDS011;5013;51.840;8.276;2023-08-08T10:18:16;7.03;;;3.23;;
9948;SDS011;5013;51.840;8.276;2023-08-08T10:20:43;7.93;;;3.57;;
9948;SDS011;5013;51.840;8.276;2023-08-08T10:23:10;5.00;;;2.67;;
9948;SDS011;5013;51.840;8.276;2023-08-08T10:25:36;4.83;;;3.00;;
9948;SDS011;5013;51.840;8.276;2023-08-08T10:28:08;6.80;;;3.23;;
9948;SDS011;5013;51.840;8.276;2023-08-08T10:30:45;5.40;;;2.90;;
9948;SDS011;5013;51.840;8.276;2023-08-08T10:34:00;5.03;;;3.20;;
9948;SDS011;5013;51.840;8.276;2023-08-08T10:36:08;5.90;;;2.80;;
9948;SDS011;5013;51.840;8.276;2023-08-08T10:38:45;4.87;;;2.70;;
9948;SDS011;5013;51.840;8.276;2023-08-08T10:41:15;3.93;;;2.73;;
9948;SDS011;5013;51.840;8.276;2023-08-08T10:43:48;6.17;;;2.70;;
9948;SDS011;5013;51.840;8.276;2023-08-08T10:46:27;4.57;;;2.73;;
9948;SDS011;5013;51.840;8.276;2023-08-08T10:48:57;7.40;;;3.20;;
9948;SDS011;5013;51.840;8.276;2023-08-08T10:51:40;7.13;;;2.60;;
9948;SDS011;5013;51.840;8.276;2023-08-08T10:54:14;10.30;;;2.90;;
9948;SDS011;5013;51.840;8.276;2023-08-08T10:56:51;4.93;;;2.13;;
9948;SDS011;5013;51.840;8.276;2023-08-08T10:59:18;4.37;;;2.23;;
9948;SDS011;5013;51.840;8.276;2023-08-08T11:01:49;5.17;;;2.00;;
9948;SDS011;5013;51.840;8.276;2023-08-08T11:04:20;4.17;;;1.97;;
9948;SDS011;5013;51.840;8.276;2023-08-08T11:06:52;4.03;;;1.87;;
9948;SDS011;5013;51.840;8.276;2023-08-08T11:09:19;3.63;;;1.77;;
9948;SDS011;5013;51.840;8.276;2023-08-08T11:11:45;5.13;;;2.03;;
9948;SDS011;5013;51.840;8.276;2023-08-08T11:14:12;3.73;;;1.70;;
9948;SDS011;5013;51.840;8.276;2023-08-08T11:16:41;4.17;;;1.97;;
9948;SDS011;5013;51.840;8.276;2023-08-08T11:19:08;2.57;;;1.90;;
9948;SDS011;5013;51.840;8.276;2023-08-08T11:21:35;5.60;;;2.10;;
9948;SDS011;5013;51.840;8.276;2023-08-08T11:34:22;2.50;;;1.90;;
9948;SDS011;5013;51.840;8.276;2023-08-08T11:36:48;3.03;;;1.50;;
9948;SDS011;5013;51.840;8.276;2023-08-08T11:39:14;2.07;;;1.67;;
9948;SDS011;5013;51.840;8.276;2023-08-08T11:41:39;4.30;;;2.03;;
9948;SDS011;5013;51.840;8.276;2023-08-08T11:44:06;2.63;;;1.77;;
9948;SDS011;5013;51.840;8.276;2023-08-08T11:46:33;5.10;;;1.70;;
9948;SDS011;5013;51.840;8.276;2023-08-08T11:49:05;2.97;;;1.80;;
9948;SDS011;5013;51.840;8.276;2023-08-08T11:51:32;6.97;;;1.70;;
9948;SDS011;5013;51.840;8.276;2023-08-08T11:53:59;3.63;;;1.60;;
9948;SDS011;5013;51.840;8.276;2023-08-08T11:56:27;2.30;;;1.20;;
9948;SDS011;5013;51.840;8.276;2023-08-08T11:58:54;1.23;;;1.13;;
9948;SDS011;5013;51.840;8.276;2023-08-08T12:01:21;1.70;;;1.20;;
9948;SDS011;5013;51.840;8.276;2023-08-08T12:03:48;1.37;;;1.20;;
9948;SDS011;5013;51.840;8.276;2023-08-08T12:06:17;2.17;;;1.80;;
9948;SDS011;5013;51.840;8.276;2023-08-08T12:08:43;1.43;;;1.33;;
9948;SDS011;5013;51.840;8.276;2023-08-08T12:11:10;3.93;;;1.57;;
9948;SDS011;5013;51.840;8.276;2023-08-08T12:13:37;3.60;;;1.57;;
9948;SDS011;5013;51.840;8.276;2023-08-08T12:16:10;2.57;;;1.57;;
9948;SDS011;5013;51.840;8.276;2023-08-08T12:18:37;2.33;;;1.37;;
9948;SDS011;5013;51.840;8.276;2023-08-08T12:21:04;3.13;;;1.77;;
9948;SDS011;5013;51.840;8.276;2023-08-08T12:23:31;1.83;;;1.60;;
9948;SDS011;5013;51.840;8.276;2023-08-08T12:25:58;3.10;;;1.47;;
9948;SDS011;5013;51.840;8.276;2023-08-08T12:28:24;2.37;;;1.60;;
9948;SDS011;5013;51.840;8.276;2023-08-08T12:30:50;1.57;;;1.47;;
9948;SDS011;5013;51.840;8.276;2023-08-08T12:33:16;4.27;;;1.60;;
9948;SDS011;5013;51.840;8.276;2023-08-08T12:35:41;2.97;;;1.80;;
9948;SDS011;5013;51.840;8.276;2023-08-08T12:38:07;1.77;;;1.50;;
9948;SDS011;5013;51.840;8.276;2023-08-08T12:40:33;5.50;;;1.90;;
9948;SDS011;5013;51.840;8.276;2023-08-08T12:42:59;2.80;;;1.47;;
9948;SDS011;5013;51.840;8.276;2023-08-08T12:45:24;4.13;;;1.83;;
9948;SDS011;5013;51.840;8.276;2023-08-08T12:47:50;1.47;;;1.37;;
9948;SDS011;5013;51.840;8.276;2023-08-08T12:50:16;3.60;;;1.60;;
9948;SDS011;5013;51.840;8.276;2023-08-08T12:52:42;4.30;;;1.30;;
9948;SDS011;5013;51.840;8.276;2023-08-08T12:55:08;3.03;;;1.70;;
9948;SDS011;5013;51.840;8.276;2023-08-08T12:57:36;1.90;;;1.20;;
9948;SDS011;5013;51.840;8.276;2023-08-08T13:00:01;1.47;;;1.40;;
9948;SDS011;5013;51.840;8.276;2023-08-08T13:02:27;1.67;;;1.57;;
9948;SDS011;5013;51.840;8.276;2023-08-08T13:04:53;2.00;;;1.80;;
9948;SDS011;5013;51.840;8.276;2023-08-08T13:07:19;6.10;;;1.80;;
9948;SDS011;5013;51.840;8.276;2023-08-08T13:09:44;5.87;;;1.60;;
9948;SDS011;5013;51.840;8.276;2023-08-08T13:12:10;3.10;;;2.13;;
9948;SDS011;5013;51.840;8.276;2023-08-08T13:14:35;3.63;;;2.00;;
9948;SDS011;5013;51.840;8.276;2023-08-08T13:17:01;4.50;;;2.07;;
9948;SDS011;5013;51.840;8.276;2023-08-08T13:19:27;2.93;;;1.97;;
9948;SDS011;5013;51.840;8.276;2023-08-08T13:21:53;5.57;;;2.43;;
9948;SDS011;5013;51.840;8.276;2023-08-08T13:24:19;2.50;;;2.30;;
9948;SDS011;5013;51.840;8.276;2023-08-08T13:26:49;3.90;;;2.30;;
9948;SDS011;5013;51.840;8.276;2023-08-08T13:29:14;2.97;;;2.03;;
9948;SDS011;5013;51.840;8.276;2023-08-08T13:31:40;4.10;;;1.90;;
9948;SDS011;5013;51.840;8.276;2023-08-08T13:34:06;2.63;;;2.17;;
9948;SDS011;5013;51.840;8.276;2023-08-08T13:36:31;2.50;;;1.33;;
9948;SDS011;5013;51.840;8.276;2023-08-08T13:38:57;2.93;;;1.67;;
9948;SDS011;5013;51.840;8.276;2023-08-08T13:41:23;6.30;;;1.60;;
9948;SDS011;5013;51.840;8.276;2023-08-08T13:43:49;2.10;;;1.40;;
9948;SDS011;5013;51.840;8.276;2023-08-08T13:46:14;2.27;;;1.60;;
9948;SDS011;5013;51.840;8.276;2023-08-08T13:48:40;2.73;;;1.80;;
9948;SDS011;5013;51.840;8.276;2023-08-08T13:51:05;3.37;;;1.73;;
9948;SDS011;5013;51.840;8.276;2023-08-08T13:53:31;3.07;;;1.90;;
9948;SDS011;5013;51.840;8.276;2023-08-08T13:55:57;3.37;;;1.90;;
9948;SDS011;5013;51.840;8.276;2023-08-08T13:58:22;2.00;;;1.90;;
9948;SDS011;5013;51.840;8.276;2023-08-08T14:00:48;7.70;;;2.33;;
9948;SDS011;5013;51.840;8.276;2023-08-08T14:03:15;4.77;;;1.80;;
9948;SDS011;5013;51.840;8.276;2023-08-08T14:05:40;2.77;;;1.40;;
9948;SDS011;5013;51.840;8.276;2023-08-08T14:08:06;1.97;;;1.83;;
9948;SDS011;5013;51.840;8.276;2023-08-08T14:10:32;3.00;;;1.80;;
9948;SDS011;5013;51.840;8.276;2023-08-08T14:12:57;4.70;;;1.80;;
9948;SDS011;5013;51.840;8.276;2023-08-08T14:15:23;3.77;;;1.90;;
9948;SDS011;5013;51.840;8.276;2023-08-08T14:17:49;3.90;;;1.73;;
9948;SDS011;5013;51.840;8.276;2023-08-08T14:20:15;3.87;;;1.80;;
9948;SDS011;5013;51.840;8.276;2023-08-08T14:22:43;2.97;;;1.70;;
9948;SDS011;5013;51.840;8.276;2023-08-08T14:25:12;3.70;;;1.70;;
9948;SDS011;5013;51.840;8.276;2023-08-08T14:27:38;3.13;;;1.57;;
9948;SDS011;5013;51.840;8.276;2023-08-08T14:30:04;3.90;;;1.60;;
9948;SDS011;5013;51.840;8.276;2023-08-08T14:32:30;1.70;;;1.60;;
9948;SDS011;5013;51.840;8.276;2023-08-08T14:34:56;1.77;;;1.57;;
9948;SDS011;5013;51.840;8.276;2023-08-08T14:37:22;3.33;;;1.57;;
9948;SDS011;5013;51.840;8.276;2023-08-08T14:39:47;1.90;;;1.70;;
9948;SDS011;5013;51.840;8.276;2023-08-08T14:42:13;3.33;;;1.70;;
9948;SDS011;5013;51.840;8.276;2023-08-08T14:44:39;2.93;;;1.57;;
9948;SDS011;5013;51.840;8.276;2023-08-08T14:47:05;5.50;;;1.67;;
9948;SDS011;5013;51.840;8.276;2023-08-08T14:49:31;6.27;;;3.20;;
9948;SDS011;5013;51.840;8.276;2023-08-08T14:51:56;6.50;;;4.93;;
9948;SDS011;5013;51.840;8.276;2023-08-08T14:54:22;16.00;;;10.23;;
9948;SDS011;5013;51.840;8.276;2023-08-08T14:56:48;36.67;;;21.70;;
9948;SDS011;5013;51.840;8.276;2023-08-08T14:59:14;32.30;;;19.13;;
9948;SDS011;5013;51.840;8.276;2023-08-08T15:01:39;6.63;;;3.50;;
9948;SDS011;5013;51.840;8.276;2023-08-08T15:04:05;2.40;;;2.10;;
9948;SDS011;5013;51.840;8.276;2023-08-08T15:06:30;2.00;;;1.80;;
9948;SDS011;5013;51.840;8.276;2023-08-08T15:08:57;1.80;;;1.70;;
9948;SDS011;5013;51.840;8.276;2023-08-08T15:11:22;7.20;;;1.60;;
9948;SDS011;5013;51.840;8.276;2023-08-08T15:13:48;2.77;;;1.67;;